sensor_id;sensor_type;location;lat;lon;timestamp;temperature;humidity
6102;DHT22;3081;50.584;7.032;2023-04-30T00:01:46;10.80;99.90
6102;DHT22;3081;50.584;7.032;2023-04-30T00:04:13;10.80;99.90
6102;DHT22;3081;50.584;7.032;2023-04-30T00:06:41;10.80;99.90
6102;DHT22;3081;50.584;7.032;2023-04-30T00:09:08;10.80;99.90
6102;DHT22;3081;50.584;7.032;2023-04-30T00:11:35;10.80;99.90
6102;DHT22;3081;50.584;7.032;2023-04-30T00:14:02;10.70;99.90
6102;DHT22;3081;50.584;7.032;2023-04-30T00:16:29;10.70;99.90
6102;DHT22;3081;50.584;7.032;2023-04-30T00:18:56;10.70;99.90
6102;DHT22;3081;50.584;7.032;2023-04-30T00:21:23;10.70;99.90
6102;DHT22;3081;50.584;7.032;2023-04-30T00:23:51;10.70;99.90
6102;DHT22;3081;50.584;7.032;2023-04-30T00:26:18;10.70;99.90
6102;DHT22;3081;50.584;7.032;2023-04-30T00:28:45;10.60;99.90
6102;DHT22;3081;50.584;7.032;2023-04-30T00:31:12;10.60;99.90
6102;DHT22;3081;50.584;7.032;2023-04-30T00:33:39;10.60;99.90
6102;DHT22;3081;50.584;7.032;2023-04-30T00:36:06;10.60;99.90
6102;DHT22;3081;50.584;7.032;2023-04-30T00:38:33;10.60;99.90
6102;DHT22;3081;50.584;7.032;2023-04-30T00:41:01;10.60;99.90
6102;DHT22;3081;50.584;7.032;2023-04-30T00:43:28;10.50;99.90
6102;DHT22;3081;50.584;7.032;2023-04-30T00:45:56;10.50;99.90
6102;DHT22;3081;50.584;7.032;2023-04-30T00:48:23;10.50;99.90
6102;DHT22;3081;50.584;7.032;2023-04-30T00:50:50;10.50;99.90
6102;DHT22;3081;50.584;7.032;2023-04-30T00:53:18;10.40;99.90
6102;DHT22;3081;50.584;7.032;2023-04-30T00:55:46;10.40;99.90
6102;DHT22;3081;50.584;7.032;2023-04-30T00:58:15;10.40;99.90
6102;DHT22;3081;50.584;7.032;2023-04-30T01:00:42;10.40;99.90
6102;DHT22;3081;50.584;7.032;2023-04-30T01:03:12;10.40;99.90
6102;DHT22;3081;50.584;7.032;2023-04-30T01:05:39;10.30;99.90
6102;DHT22;3081;50.584;7.032;2023-04-30T01:08:06;10.20;99.90
6102;DHT22;3081;50.584;7.032;2023-04-30T01:10:40;10.20;99.90
6102;DHT22;3081;50.584;7.032;2023-04-30T01:13:12;10.20;99.90
6102;DHT22;3081;50.584;7.032;2023-04-30T01:15:49;10.20;99.90
6102;DHT22;3081;50.584;7.032;2023-04-30T01:18:26;10.10;99.90
6102;DHT22;3081;50.584;7.032;2023-04-30T01:20:57;10.10;99.90
6102;DHT22;3081;50.584;7.032;2023-04-30T01:23:36;10.10;99.90
6102;DHT22;3081;50.584;7.032;2023-04-30T01:26:13;10.00;99.90
6102;DHT22;3081;50.584;7.032;2023-04-30T01:28:44;10.00;99.90
6102;DHT22;3081;50.584;7.032;2023-04-30T01:31:17;9.90;99.90
6102;DHT22;3081;50.584;7.032;2023-04-30T01:33:44;9.90;99.90
6102;DHT22;3081;50.584;7.032;2023-04-30T01:36:28;9.90;99.90
6102;DHT22;3081;50.584;7.032;2023-04-30T01:39:14;9.80;99.90
6102;DHT22;3081;50.584;7.032;2023-04-30T01:41:52;9.70;99.90
6102;DHT22;3081;50.584;7.032;2023-04-30T01:44:42;9.60;99.90
6102;DHT22;3081;50.584;7.032;2023-04-30T01:47:23;9.60;99.90
6102;DHT22;3081;50.584;7.032;2023-04-30T01:49:56;9.50;99.90
6102;DHT22;3081;50.584;7.032;2023-04-30T01:52:32;9.50;99.90
6102;DHT22;3081;50.584;7.032;2023-04-30T01:55:08;9.40;99.90
6102;DHT22;3081;50.584;7.032;2023-04-30T01:57:38;9.30;99.90
6102;DHT22;3081;50.584;7.032;2023-04-30T02:00:09;9.20;99.90
6102;DHT22;3081;50.584;7.032;2023-04-30T02:02:36;9.10;99.90
6102;DHT22;3081;50.584;7.032;2023-04-30T02:05:03;9.00;99.90
6102;DHT22;3081;50.584;7.032;2023-04-30T02:07:38;8.90;99.90
6102;DHT22;3081;50.584;7.032;2023-04-30T02:10:06;8.80;99.90
6102;DHT22;3081;50.584;7.032;2023-04-30T02:12:33;8.80;99.90
6102;DHT22;3081;50.584;7.032;2023-04-30T02:15:00;8.70;99.90
6102;DHT22;3081;50.584;7.032;2023-04-30T02:17:28;8.70;99.90
6102;DHT22;3081;50.584;7.032;2023-04-30T02:19:55;8.60;99.90
6102;DHT22;3081;50.584;7.032;2023-04-30T02:22:22;8.60;99.90
6102;DHT22;3081;50.584;7.032;2023-04-30T02:24:49;8.60;99.90
6102;DHT22;3081;50.584;7.032;2023-04-30T02:27:19;8.50;99.90
6102;DHT22;3081;50.584;7.032;2023-04-30T02:29:46;8.40;99.90
6102;DHT22;3081;50.584;7.032;2023-04-30T02:32:13;8.30;99.90
6102;DHT22;3081;50.584;7.032;2023-04-30T02:34:41;8.30;99.90
6102;DHT22;3081;50.584;7.032;2023-04-30T02:37:08;8.30;99.90
6102;DHT22;3081;50.584;7.032;2023-04-30T02:39:35;8.30;99.90
6102;DHT22;3081;50.584;7.032;2023-04-30T02:42:03;8.20;99.90
6102;DHT22;3081;50.584;7.032;2023-04-30T02:44:31;8.20;99.90
6102;DHT22;3081;50.584;7.032;2023-04-30T02:46:58;8.10;99.90
6102;DHT22;3081;50.584;7.032;2023-04-30T02:49:25;8.00;99.90
6102;DHT22;3081;50.584;7.032;2023-04-30T02:51:54;8.00;99.90
6102;DHT22;3081;50.584;7.032;2023-04-30T02:54:20;7.90;99.90
6102;DHT22;3081;50.584;7.032;2023-04-30T02:56:47;7.90;99.90
6102;DHT22;3081;50.584;7.032;2023-04-30T02:59:14;7.90;99.90
6102;DHT22;3081;50.584;7.032;2023-04-30T03:01:41;7.90;99.90
6102;DHT22;3081;50.584;7.032;2023-04-30T03:04:08;7.90;99.90
6102;DHT22;3081;50.584;7.032;2023-04-30T03:06:35;7.90;99.90
6102;DHT22;3081;50.584;7.032;2023-04-30T03:09:03;7.80;99.90
6102;DHT22;3081;50.584;7.032;2023-04-30T03:11:31;7.80;99.90
6102;DHT22;3081;50.584;7.032;2023-04-30T03:13:58;7.70;99.90
6102;DHT22;3081;50.584;7.032;2023-04-30T03:16:25;7.70;99.90
6102;DHT22;3081;50.584;7.032;2023-04-30T03:18:52;7.60;99.90
6102;DHT22;3081;50.584;7.032;2023-04-30T03:21:18;7.50;99.90
6102;DHT22;3081;50.584;7.032;2023-04-30T03:23:45;7.50;99.90
6102;DHT22;3081;50.584;7.032;2023-04-30T03:26:13;7.50;99.90
6102;DHT22;3081;50.584;7.032;2023-04-30T03:28:40;7.50;99.90
6102;DHT22;3081;50.584;7.032;2023-04-30T03:31:07;7.50;99.90
6102;DHT22;3081;50.584;7.032;2023-04-30T03:33:34;7.40;99.90
6102;DHT22;3081;50.584;7.032;2023-04-30T03:36:01;7.30;99.90
6102;DHT22;3081;50.584;7.032;2023-04-30T03:38:28;7.30;99.90
6102;DHT22;3081;50.584;7.032;2023-04-30T03:40:55;7.30;99.90
6102;DHT22;3081;50.584;7.032;2023-04-30T03:43:23;7.30;99.90
6102;DHT22;3081;50.584;7.032;2023-04-30T03:45:50;7.20;99.90
6102;DHT22;3081;50.584;7.032;2023-04-30T03:48:17;7.20;99.90
6102;DHT22;3081;50.584;7.032;2023-04-30T03:50:44;7.20;99.90
6102;DHT22;3081;50.584;7.032;2023-04-30T03:53:11;7.20;99.90
6102;DHT22;3081;50.584;7.032;2023-04-30T03:55:38;7.10;99.90
6102;DHT22;3081;50.584;7.032;2023-04-30T03:58:05;7.10;99.90
6102;DHT22;3081;50.584;7.032;2023-04-30T04:00:34;7.00;99.90
6102;DHT22;3081;50.584;7.032;2023-04-30T04:03:01;7.00;99.90
6102;DHT22;3081;50.584;7.032;2023-04-30T04:05:28;6.90;99.90
6102;DHT22;3081;50.584;7.032;2023-04-30T04:07:55;6.90;99.90
6102;DHT22;3081;50.584;7.032;2023-04-30T04:10:22;7.20;99.90
6102;DHT22;3081;50.584;7.032;2023-04-30T04:12:49;6.90;99.90
6102;DHT22;3081;50.584;7.032;2023-04-30T04:15:16;6.90;99.90
6102;DHT22;3081;50.584;7.032;2023-04-30T04:17:45;6.90;99.90
6102;DHT22;3081;50.584;7.032;2023-04-30T04:20:12;6.90;99.90
6102;DHT22;3081;50.584;7.032;2023-04-30T04:22:39;6.90;99.90
6102;DHT22;3081;50.584;7.032;2023-04-30T04:25:06;6.90;99.90
6102;DHT22;3081;50.584;7.032;2023-04-30T04:27:33;7.00;99.90
6102;DHT22;3081;50.584;7.032;2023-04-30T04:30:02;7.00;99.90
6102;DHT22;3081;50.584;7.032;2023-04-30T04:32:29;7.00;99.90
6102;DHT22;3081;50.584;7.032;2023-04-30T04:34:58;7.10;99.90
6102;DHT22;3081;50.584;7.032;2023-04-30T04:37:25;7.10;99.90
6102;DHT22;3081;50.584;7.032;2023-04-30T04:39:52;7.00;99.90
6102;DHT22;3081;50.584;7.032;2023-04-30T04:42:19;7.10;99.90
6102;DHT22;3081;50.584;7.032;2023-04-30T04:44:46;7.10;99.90
6102;DHT22;3081;50.584;7.032;2023-04-30T04:47:13;7.10;99.90
6102;DHT22;3081;50.584;7.032;2023-04-30T04:49:41;7.10;99.90
6102;DHT22;3081;50.584;7.032;2023-04-30T04:52:09;7.10;99.90
6102;DHT22;3081;50.584;7.032;2023-04-30T04:54:36;7.20;99.90
6102;DHT22;3081;50.584;7.032;2023-04-30T04:57:03;7.20;99.90
6102;DHT22;3081;50.584;7.032;2023-04-30T04:59:30;7.30;99.90
6102;DHT22;3081;50.584;7.032;2023-04-30T05:01:57;7.30;99.90
6102;DHT22;3081;50.584;7.032;2023-04-30T05:04:23;7.40;99.90
6102;DHT22;3081;50.584;7.032;2023-04-30T05:06:50;7.60;99.90
6102;DHT22;3081;50.584;7.032;2023-04-30T05:09:20;7.60;99.90
6102;DHT22;3081;50.584;7.032;2023-04-30T05:11:47;7.80;99.90
6102;DHT22;3081;50.584;7.032;2023-04-30T05:14:14;7.90;99.90
6102;DHT22;3081;50.584;7.032;2023-04-30T05:16:41;8.00;99.90
6102;DHT22;3081;50.584;7.032;2023-04-30T05:19:08;8.00;99.90
6102;DHT22;3081;50.584;7.032;2023-04-30T05:21:35;8.10;99.90
6102;DHT22;3081;50.584;7.032;2023-04-30T05:24:01;8.20;99.90
6102;DHT22;3081;50.584;7.032;2023-04-30T05:26:30;8.30;99.90
6102;DHT22;3081;50.584;7.032;2023-04-30T05:28:57;8.40;99.90
6102;DHT22;3081;50.584;7.032;2023-04-30T05:31:24;8.30;99.90
6102;DHT22;3081;50.584;7.032;2023-04-30T05:33:50;8.40;99.90
6102;DHT22;3081;50.584;7.032;2023-04-30T05:36:17;8.50;99.90
6102;DHT22;3081;50.584;7.032;2023-04-30T05:38:44;8.60;99.90
6102;DHT22;3081;50.584;7.032;2023-04-30T05:41:12;8.70;99.90
6102;DHT22;3081;50.584;7.032;2023-04-30T05:43:40;8.90;99.90
6102;DHT22;3081;50.584;7.032;2023-04-30T05:46:07;8.90;99.90
6102;DHT22;3081;50.584;7.032;2023-04-30T05:48:33;9.10;99.90
6102;DHT22;3081;50.584;7.032;2023-04-30T05:51:00;9.20;99.90
6102;DHT22;3081;50.584;7.032;2023-04-30T05:53:27;9.40;99.90
6102;DHT22;3081;50.584;7.032;2023-04-30T05:55:54;9.50;99.90
6102;DHT22;3081;50.584;7.032;2023-04-30T05:58:21;9.70;99.90
6102;DHT22;3081;50.584;7.032;2023-04-30T06:00:50;9.90;99.90
6102;DHT22;3081;50.584;7.032;2023-04-30T06:03:17;10.00;99.90
6102;DHT22;3081;50.584;7.032;2023-04-30T06:05:45;10.20;99.90
6102;DHT22;3081;50.584;7.032;2023-04-30T06:08:12;10.40;99.90
6102;DHT22;3081;50.584;7.032;2023-04-30T06:10:39;10.50;99.90
6102;DHT22;3081;50.584;7.032;2023-04-30T06:13:06;10.60;99.90
6102;DHT22;3081;50.584;7.032;2023-04-30T06:15:33;10.60;99.90
6102;DHT22;3081;50.584;7.032;2023-04-30T06:18:01;10.70;99.90
6102;DHT22;3081;50.584;7.032;2023-04-30T06:20:28;10.70;99.90
6102;DHT22;3081;50.584;7.032;2023-04-30T06:22:55;10.80;99.90
6102;DHT22;3081;50.584;7.032;2023-04-30T06:25:22;11.00;99.90
6102;DHT22;3081;50.584;7.032;2023-04-30T06:27:48;11.00;99.90
6102;DHT22;3081;50.584;7.032;2023-04-30T06:30:18;11.10;99.90
6102;DHT22;3081;50.584;7.032;2023-04-30T06:32:45;11.20;99.90
6102;DHT22;3081;50.584;7.032;2023-04-30T06:35:13;11.30;99.90
6102;DHT22;3081;50.584;7.032;2023-04-30T06:37:40;11.40;99.90
6102;DHT22;3081;50.584;7.032;2023-04-30T06:40:08;11.50;99.90
6102;DHT22;3081;50.584;7.032;2023-04-30T06:42:35;11.60;99.90
6102;DHT22;3081;50.584;7.032;2023-04-30T06:45:02;11.60;99.90
6102;DHT22;3081;50.584;7.032;2023-04-30T06:47:31;11.60;99.90
6102;DHT22;3081;50.584;7.032;2023-04-30T06:49:59;11.70;99.90
6102;DHT22;3081;50.584;7.032;2023-04-30T06:52:27;11.70;99.90
6102;DHT22;3081;50.584;7.032;2023-04-30T06:54:54;11.60;99.90
6102;DHT22;3081;50.584;7.032;2023-04-30T06:57:21;11.60;99.90
6102;DHT22;3081;50.584;7.032;2023-04-30T06:59:49;11.70;99.90
6102;DHT22;3081;50.584;7.032;2023-04-30T07:02:16;11.80;99.90
6102;DHT22;3081;50.584;7.032;2023-04-30T07:04:43;11.90;99.90
6102;DHT22;3081;50.584;7.032;2023-04-30T07:07:10;12.00;99.90
6102;DHT22;3081;50.584;7.032;2023-04-30T07:09:38;12.10;99.90
6102;DHT22;3081;50.584;7.032;2023-04-30T07:12:05;12.20;99.90
6102;DHT22;3081;50.584;7.032;2023-04-30T07:14:32;12.30;99.90
6102;DHT22;3081;50.584;7.032;2023-04-30T07:16:58;12.40;99.90
6102;DHT22;3081;50.584;7.032;2023-04-30T07:19:26;12.40;99.90
6102;DHT22;3081;50.584;7.032;2023-04-30T07:21:53;12.40;99.90
6102;DHT22;3081;50.584;7.032;2023-04-30T07:24:20;12.30;99.90
6102;DHT22;3081;50.584;7.032;2023-04-30T07:26:48;12.30;99.90
6102;DHT22;3081;50.584;7.032;2023-04-30T07:29:15;12.30;99.90
6102;DHT22;3081;50.584;7.032;2023-04-30T07:31:42;12.30;99.90
6102;DHT22;3081;50.584;7.032;2023-04-30T07:34:09;12.30;99.90
6102;DHT22;3081;50.584;7.032;2023-04-30T07:36:37;12.30;99.90
6102;DHT22;3081;50.584;7.032;2023-04-30T07:39:04;12.40;99.90
6102;DHT22;3081;50.584;7.032;2023-04-30T07:41:32;12.50;99.90
6102;DHT22;3081;50.584;7.032;2023-04-30T07:44:00;12.60;99.90
6102;DHT22;3081;50.584;7.032;2023-04-30T07:46:27;12.60;99.90
6102;DHT22;3081;50.584;7.032;2023-04-30T07:48:54;12.70;99.90
6102;DHT22;3081;50.584;7.032;2023-04-30T07:51:21;12.80;99.90
6102;DHT22;3081;50.584;7.032;2023-04-30T07:53:48;12.80;99.90
6102;DHT22;3081;50.584;7.032;2023-04-30T07:56:17;12.90;99.90
6102;DHT22;3081;50.584;7.032;2023-04-30T07:58:44;12.90;99.90
6102;DHT22;3081;50.584;7.032;2023-04-30T08:01:13;13.10;99.90
6102;DHT22;3081;50.584;7.032;2023-04-30T08:03:40;13.10;99.90
6102;DHT22;3081;50.584;7.032;2023-04-30T08:06:07;13.10;99.90
6102;DHT22;3081;50.584;7.032;2023-04-30T08:08:34;13.20;99.90
6102;DHT22;3081;50.584;7.032;2023-04-30T08:11:01;13.40;99.90
6102;DHT22;3081;50.584;7.032;2023-04-30T08:13:28;13.50;99.90
6102;DHT22;3081;50.584;7.032;2023-04-30T08:15:55;13.60;99.90
6102;DHT22;3081;50.584;7.032;2023-04-30T08:18:23;13.70;99.90
6102;DHT22;3081;50.584;7.032;2023-04-30T08:20:50;13.60;99.90
6102;DHT22;3081;50.584;7.032;2023-04-30T08:23:17;13.60;99.90
6102;DHT22;3081;50.584;7.032;2023-04-30T08:25:44;13.70;99.90
6102;DHT22;3081;50.584;7.032;2023-04-30T08:28:11;13.90;99.90
6102;DHT22;3081;50.584;7.032;2023-04-30T08:30:38;14.00;99.90
6102;DHT22;3081;50.584;7.032;2023-04-30T08:33:05;14.10;99.90
6102;DHT22;3081;50.584;7.032;2023-04-30T08:35:34;14.30;99.90
6102;DHT22;3081;50.584;7.032;2023-04-30T08:38:00;14.40;99.90
6102;DHT22;3081;50.584;7.032;2023-04-30T08:40:27;14.50;99.90
6102;DHT22;3081;50.584;7.032;2023-04-30T08:43:03;14.60;99.90
6102;DHT22;3081;50.584;7.032;2023-04-30T08:45:31;14.80;99.90
6102;DHT22;3081;50.584;7.032;2023-04-30T08:47:59;15.00;99.90
6102;DHT22;3081;50.584;7.032;2023-04-30T08:50:27;15.10;99.90
6102;DHT22;3081;50.584;7.032;2023-04-30T08:52:56;15.40;99.90
6102;DHT22;3081;50.584;7.032;2023-04-30T08:55:23;15.50;99.90
6102;DHT22;3081;50.584;7.032;2023-04-30T08:57:50;15.70;99.90
6102;DHT22;3081;50.584;7.032;2023-04-30T09:00:17;15.90;99.90
6102;DHT22;3081;50.584;7.032;2023-04-30T09:02:45;16.10;99.90
6102;DHT22;3081;50.584;7.032;2023-04-30T09:05:14;16.40;99.90
6102;DHT22;3081;50.584;7.032;2023-04-30T09:07:42;16.90;99.90
6102;DHT22;3081;50.584;7.032;2023-04-30T09:10:16;17.60;99.90
6102;DHT22;3081;50.584;7.032;2023-04-30T09:12:43;18.50;99.90
6102;DHT22;3081;50.584;7.032;2023-04-30T09:15:11;19.40;99.90
6102;DHT22;3081;50.584;7.032;2023-04-30T09:17:38;20.40;99.90
6102;DHT22;3081;50.584;7.032;2023-04-30T09:20:06;21.50;99.40
6102;DHT22;3081;50.584;7.032;2023-04-30T09:22:35;22.50;96.00
6102;DHT22;3081;50.584;7.032;2023-04-30T09:25:02;23.30;92.30
6102;DHT22;3081;50.584;7.032;2023-04-30T09:27:30;23.80;86.20
6102;DHT22;3081;50.584;7.032;2023-04-30T09:29:57;24.30;81.40
6102;DHT22;3081;50.584;7.032;2023-04-30T09:32:24;24.70;73.10
6102;DHT22;3081;50.584;7.032;2023-04-30T09:34:51;24.90;72.10
6102;DHT22;3081;50.584;7.032;2023-04-30T09:37:18;25.10;69.70
6102;DHT22;3081;50.584;7.032;2023-04-30T09:39:46;25.10;69.90
6102;DHT22;3081;50.584;7.032;2023-04-30T09:42:14;25.50;66.80
6102;DHT22;3081;50.584;7.032;2023-04-30T09:44:42;25.70;66.50
6102;DHT22;3081;50.584;7.032;2023-04-30T09:47:14;25.90;64.90
6102;DHT22;3081;50.584;7.032;2023-04-30T09:49:42;26.20;65.00
6102;DHT22;3081;50.584;7.032;2023-04-30T09:52:10;26.50;62.10
6102;DHT22;3081;50.584;7.032;2023-04-30T09:54:37;26.70;61.60
6102;DHT22;3081;50.584;7.032;2023-04-30T09:57:09;26.80;61.90
6102;DHT22;3081;50.584;7.032;2023-04-30T09:59:36;27.20;59.70
6102;DHT22;3081;50.584;7.032;2023-04-30T10:02:06;27.40;59.40
6102;DHT22;3081;50.584;7.032;2023-04-30T10:04:34;27.60;57.90
6102;DHT22;3081;50.584;7.032;2023-04-30T10:07:03;27.80;56.40
6102;DHT22;3081;50.584;7.032;2023-04-30T10:09:38;28.10;55.10
6102;DHT22;3081;50.584;7.032;2023-04-30T10:12:10;28.00;54.10
6102;DHT22;3081;50.584;7.032;2023-04-30T10:14:41;28.00;53.50
6102;DHT22;3081;50.584;7.032;2023-04-30T10:17:13;27.50;53.40
6102;DHT22;3081;50.584;7.032;2023-04-30T10:19:45;26.80;54.10
6102;DHT22;3081;50.584;7.032;2023-04-30T10:22:12;26.80;55.50
6102;DHT22;3081;50.584;7.032;2023-04-30T10:24:41;27.10;54.90
6102;DHT22;3081;50.584;7.032;2023-04-30T10:27:08;27.00;54.40
6102;DHT22;3081;50.584;7.032;2023-04-30T10:29:35;26.50;53.90
6102;DHT22;3081;50.584;7.032;2023-04-30T10:32:02;25.40;54.50
6102;DHT22;3081;50.584;7.032;2023-04-30T10:34:39;24.80;56.00
6102;DHT22;3081;50.584;7.032;2023-04-30T10:37:14;24.10;57.20
6102;DHT22;3081;50.584;7.032;2023-04-30T10:39:47;23.80;59.10
6102;DHT22;3081;50.584;7.032;2023-04-30T10:42:14;24.60;57.70
6102;DHT22;3081;50.584;7.032;2023-04-30T10:44:41;25.60;57.40
6102;DHT22;3081;50.584;7.032;2023-04-30T10:47:08;26.70;56.70
6102;DHT22;3081;50.584;7.032;2023-04-30T10:49:36;27.60;55.30
6102;DHT22;3081;50.584;7.032;2023-04-30T10:52:04;27.80;54.80
6102;DHT22;3081;50.584;7.032;2023-04-30T10:54:32;28.40;53.10
6102;DHT22;3081;50.584;7.032;2023-04-30T10:57:10;29.00;52.00
6102;DHT22;3081;50.584;7.032;2023-04-30T10:59:41;28.90;51.20
6102;DHT22;3081;50.584;7.032;2023-04-30T11:02:11;28.70;51.20
6102;DHT22;3081;50.584;7.032;2023-04-30T11:05:10;29.00;50.90
6102;DHT22;3081;50.584;7.032;2023-04-30T11:07:45;29.80;49.10
6102;DHT22;3081;50.584;7.032;2023-04-30T11:10:14;29.00;48.20
6102;DHT22;3081;50.584;7.032;2023-04-30T11:12:46;28.90;49.90
6102;DHT22;3081;50.584;7.032;2023-04-30T11:15:15;29.40;48.10
6102;DHT22;3081;50.584;7.032;2023-04-30T11:17:43;29.50;49.40
6102;DHT22;3081;50.584;7.032;2023-04-30T11:20:14;29.40;47.90
6102;DHT22;3081;50.584;7.032;2023-04-30T11:22:44;29.40;48.00
6102;DHT22;3081;50.584;7.032;2023-04-30T11:25:12;29.20;46.70
6102;DHT22;3081;50.584;7.032;2023-04-30T11:27:41;28.30;48.60
6102;DHT22;3081;50.584;7.032;2023-04-30T11:30:11;27.30;49.10
6102;DHT22;3081;50.584;7.032;2023-04-30T11:32:40;26.60;49.60
6102;DHT22;3081;50.584;7.032;2023-04-30T11:35:08;26.10;49.70
6102;DHT22;3081;50.584;7.032;2023-04-30T11:37:37;25.90;50.20
6102;DHT22;3081;50.584;7.032;2023-04-30T11:40:06;25.80;50.50
6102;DHT22;3081;50.584;7.032;2023-04-30T11:42:36;25.70;50.70
6102;DHT22;3081;50.584;7.032;2023-04-30T11:45:05;25.60;50.60
6102;DHT22;3081;50.584;7.032;2023-04-30T11:47:41;26.00;50.70
6102;DHT22;3081;50.584;7.032;2023-04-30T11:50:09;26.30;50.00
6102;DHT22;3081;50.584;7.032;2023-04-30T11:52:38;27.00;50.10
6102;DHT22;3081;50.584;7.032;2023-04-30T11:55:12;27.70;49.90
6102;DHT22;3081;50.584;7.032;2023-04-30T11:57:41;28.60;48.40
6102;DHT22;3081;50.584;7.032;2023-04-30T12:00:13;29.40;48.20
6102;DHT22;3081;50.584;7.032;2023-04-30T12:02:40;30.40;46.80
6102;DHT22;3081;50.584;7.032;2023-04-30T12:05:14;31.10;44.90
6102;DHT22;3081;50.584;7.032;2023-04-30T12:07:50;31.40;44.30
6102;DHT22;3081;50.584;7.032;2023-04-30T12:10:21;31.30;44.00
6102;DHT22;3081;50.584;7.032;2023-04-30T12:12:49;30.70;44.40
6102;DHT22;3081;50.584;7.032;2023-04-30T12:15:18;30.70;44.60
6102;DHT22;3081;50.584;7.032;2023-04-30T12:17:47;30.40;44.70
6102;DHT22;3081;50.584;7.032;2023-04-30T12:20:15;30.40;44.60
6102;DHT22;3081;50.584;7.032;2023-04-30T12:22:43;30.90;44.00
6102;DHT22;3081;50.584;7.032;2023-04-30T12:25:13;31.50;43.50
6102;DHT22;3081;50.584;7.032;2023-04-30T12:27:41;32.20;43.10
6102;DHT22;3081;50.584;7.032;2023-04-30T12:30:09;32.80;42.70
6102;DHT22;3081;50.584;7.032;2023-04-30T12:32:38;33.50;42.10
6102;DHT22;3081;50.584;7.032;2023-04-30T12:35:06;33.80;41.80
6102;DHT22;3081;50.584;7.032;2023-04-30T12:37:33;34.20;41.20
6102;DHT22;3081;50.584;7.032;2023-04-30T12:40:00;34.60;39.40
6102;DHT22;3081;50.584;7.032;2023-04-30T12:42:32;35.30;39.10
6102;DHT22;3081;50.584;7.032;2023-04-30T12:45:00;36.20;39.10
6102;DHT22;3081;50.584;7.032;2023-04-30T12:47:27;36.80;38.10
6102;DHT22;3081;50.584;7.032;2023-04-30T12:49:55;36.60;37.60
6102;DHT22;3081;50.584;7.032;2023-04-30T12:52:24;35.70;37.30
6102;DHT22;3081;50.584;7.032;2023-04-30T12:54:51;34.40;37.40
6102;DHT22;3081;50.584;7.032;2023-04-30T12:57:19;32.80;39.00
6102;DHT22;3081;50.584;7.032;2023-04-30T12:59:58;31.50;40.00
6102;DHT22;3081;50.584;7.032;2023-04-30T13:02:27;31.90;41.00
6102;DHT22;3081;50.584;7.032;2023-04-30T13:04:56;33.50;40.70
6102;DHT22;3081;50.584;7.032;2023-04-30T13:07:23;35.40;39.50
6102;DHT22;3081;50.584;7.032;2023-04-30T13:09:50;36.80;36.90
6102;DHT22;3081;50.584;7.032;2023-04-30T13:12:17;36.40;36.10
6102;DHT22;3081;50.584;7.032;2023-04-30T13:14:45;36.90;36.20
6102;DHT22;3081;50.584;7.032;2023-04-30T13:17:13;37.70;35.50
6102;DHT22;3081;50.584;7.032;2023-04-30T13:19:40;37.60;34.70
6102;DHT22;3081;50.584;7.032;2023-04-30T13:22:07;37.30;36.00
6102;DHT22;3081;50.584;7.032;2023-04-30T13:24:34;38.20;35.30
6102;DHT22;3081;50.584;7.032;2023-04-30T13:27:01;37.50;34.20
6102;DHT22;3081;50.584;7.032;2023-04-30T13:29:28;36.40;35.00
6102;DHT22;3081;50.584;7.032;2023-04-30T13:31:56;35.10;35.50
6102;DHT22;3081;50.584;7.032;2023-04-30T13:34:25;33.90;36.80
6102;DHT22;3081;50.584;7.032;2023-04-30T13:36:52;32.70;37.70
6102;DHT22;3081;50.584;7.032;2023-04-30T13:39:19;31.70;38.60
6102;DHT22;3081;50.584;7.032;2023-04-30T13:41:46;31.00;39.30
6102;DHT22;3081;50.584;7.032;2023-04-30T13:44:13;30.40;40.40
6102;DHT22;3081;50.584;7.032;2023-04-30T13:46:41;29.80;40.90
6102;DHT22;3081;50.584;7.032;2023-04-30T13:49:08;29.10;41.60
6102;DHT22;3081;50.584;7.032;2023-04-30T13:51:36;28.70;42.00
6102;DHT22;3081;50.584;7.032;2023-04-30T13:54:03;29.00;42.10
6102;DHT22;3081;50.584;7.032;2023-04-30T13:56:31;29.90;42.20
6102;DHT22;3081;50.584;7.032;2023-04-30T13:58:57;32.60;40.30
6102;DHT22;3081;50.584;7.032;2023-04-30T14:01:24;35.10;38.60
6102;DHT22;3081;50.584;7.032;2023-04-30T14:03:51;37.30;36.20
6102;DHT22;3081;50.584;7.032;2023-04-30T14:06:18;39.00;34.60
6102;DHT22;3081;50.584;7.032;2023-04-30T14:08:46;39.80;33.40
6102;DHT22;3081;50.584;7.032;2023-04-30T14:11:13;40.10;32.90
6102;DHT22;3081;50.584;7.032;2023-04-30T14:13:40;40.50;32.70
6102;DHT22;3081;50.584;7.032;2023-04-30T14:16:07;41.60;32.20
6102;DHT22;3081;50.584;7.032;2023-04-30T14:18:34;42.20;30.80
6102;DHT22;3081;50.584;7.032;2023-04-30T14:21:02;42.50;31.20
6102;DHT22;3081;50.584;7.032;2023-04-30T14:23:29;43.10;30.10
6102;DHT22;3081;50.584;7.032;2023-04-30T14:25:58;43.40;29.90
6102;DHT22;3081;50.584;7.032;2023-04-30T14:28:25;43.20;29.70
6102;DHT22;3081;50.584;7.032;2023-04-30T14:30:52;41.80;29.50
6102;DHT22;3081;50.584;7.032;2023-04-30T14:33:19;41.40;30.10
6102;DHT22;3081;50.584;7.032;2023-04-30T14:35:45;40.00;30.00
6102;DHT22;3081;50.584;7.032;2023-04-30T14:38:13;38.00;31.20
6102;DHT22;3081;50.584;7.032;2023-04-30T14:40:41;35.40;33.50
6102;DHT22;3081;50.584;7.032;2023-04-30T14:43:09;33.50;35.10
6102;DHT22;3081;50.584;7.032;2023-04-30T14:45:36;31.70;37.10
6102;DHT22;3081;50.584;7.032;2023-04-30T14:48:04;30.00;38.40
6102;DHT22;3081;50.584;7.032;2023-04-30T14:50:31;28.70;39.90
6102;DHT22;3081;50.584;7.032;2023-04-30T14:52:58;27.60;41.50
6102;DHT22;3081;50.584;7.032;2023-04-30T14:55:25;27.00;42.60
6102;DHT22;3081;50.584;7.032;2023-04-30T14:57:52;26.60;43.60
6102;DHT22;3081;50.584;7.032;2023-04-30T15:00:21;26.10;44.60
6102;DHT22;3081;50.584;7.032;2023-04-30T15:02:48;25.80;44.80
6102;DHT22;3081;50.584;7.032;2023-04-30T15:05:15;26.30;45.20
6102;DHT22;3081;50.584;7.032;2023-04-30T15:07:42;27.60;43.50
6102;DHT22;3081;50.584;7.032;2023-04-30T15:10:09;27.70;43.00
6102;DHT22;3081;50.584;7.032;2023-04-30T15:12:36;27.10;43.60
6102;DHT22;3081;50.584;7.032;2023-04-30T15:15:05;26.50;44.60
6102;DHT22;3081;50.584;7.032;2023-04-30T15:17:34;26.10;45.20
6102;DHT22;3081;50.584;7.032;2023-04-30T15:20:01;25.90;46.00
6102;DHT22;3081;50.584;7.032;2023-04-30T15:22:28;27.30;45.60
6102;DHT22;3081;50.584;7.032;2023-04-30T15:24:55;31.30;43.00
6102;DHT22;3081;50.584;7.032;2023-04-30T15:27:23;34.10;37.90
6102;DHT22;3081;50.584;7.032;2023-04-30T15:29:50;33.30;36.90
6102;DHT22;3081;50.584;7.032;2023-04-30T15:32:17;31.70;37.40
6102;DHT22;3081;50.584;7.032;2023-04-30T15:34:47;30.20;38.90
6102;DHT22;3081;50.584;7.032;2023-04-30T15:37:15;28.70;41.20
6102;DHT22;3081;50.584;7.032;2023-04-30T15:39:42;27.40;43.20
6102;DHT22;3081;50.584;7.032;2023-04-30T15:42:09;26.40;45.00
6102;DHT22;3081;50.584;7.032;2023-04-30T15:44:36;25.70;46.50
6102;DHT22;3081;50.584;7.032;2023-04-30T15:47:03;25.30;47.60
6102;DHT22;3081;50.584;7.032;2023-04-30T15:49:29;24.90;48.30
6102;DHT22;3081;50.584;7.032;2023-04-30T15:51:58;24.60;49.00
6102;DHT22;3081;50.584;7.032;2023-04-30T15:54:25;24.50;49.40
6102;DHT22;3081;50.584;7.032;2023-04-30T15:56:52;24.50;49.50
6102;DHT22;3081;50.584;7.032;2023-04-30T15:59:18;24.80;49.10
6102;DHT22;3081;50.584;7.032;2023-04-30T16:01:45;25.20;48.30
6102;DHT22;3081;50.584;7.032;2023-04-30T16:04:12;26.20;48.30
6102;DHT22;3081;50.584;7.032;2023-04-30T16:06:39;29.40;47.80
6102;DHT22;3081;50.584;7.032;2023-04-30T16:09:08;32.60;42.50
6102;DHT22;3081;50.584;7.032;2023-04-30T16:11:35;35.20;39.40
6102;DHT22;3081;50.584;7.032;2023-04-30T16:14:04;36.00;37.90